NCAR-RAP Real-Time Weather Data

Output produced by METARs form (08 May 2021  01:35 UTC)
found at http://weather.rap.ucar.edu/surface/
 
KOFK 080056Z AUTO 11005KT 10SM OVC070 17/M02 A2998 RMK AO2 SLP151 T01721017
KOFK 072356Z AUTO 10008KT 10SM OVC070 19/M03 A2998 RMK AO2 SLP153 T01891028 10206 20172 56017
KOFK 072256Z AUTO 10007KT 10SM OVC065 19/M02 A3000 RMK AO2 SLP159 T01941022
KOFK 072156Z AUTO 11009KT 10SM BKN070 20/M03 A3001 RMK AO2 SLP163 T02001028
KOFK 072056Z AUTO 07010KT 10SM BKN070 21/M02 A3004 RMK AO2 SLP171 T02061022 56026
KOFK 071956Z AUTO 10SM BKN075 19/M03 A3006 RMK AO2 SLP180 T01941028
KOFK 071856Z AUTO 04009KT 10SM OVC075 19/M02 A3009 RMK AO2 SLP190 T01891022
KOFK 071756Z AUTO 06008KT 10SM BKN075 18/M02 A3012 RMK AO2 SLP199 T01781022 10178 20067 58014
KOFK 071656Z AUTO 06011KT 10SM BKN090 BKN100 17/M04 A3014 RMK AO2 SLP206 T01671039
KOFK 071556Z AUTO 07010KT 10SM OVC085 14/M04 A3015 RMK AO2 SLP212 T01441039
KOFK 071456Z AUTO 06011KT 10SM OVC090 13/M03 A3016 RMK AO2 SLP215 T01281028 50008
KOFK 071356Z AUTO 05009KT 10SM BKN090 12/M01 A3016 RMK AO2 SLP213 T01221011
KOFK 071256Z AUTO 05005KT 10SM BKN100 10/02 A3015 RMK AO2 SLP211 T01000017
KOFK 071156Z AUTO 36003KT 10SM FEW110 07/01 A3013 RMK AO2 SLP204 T00670006 10072 20033 53014
KOFK 071056Z AUTO 00000KT 10SM SCT100 06/01 A3012 RMK AO2 SLP199 T00610011 $